createdAt,value
2022-12-31T00:01:59.161Z,97984.00
2022-12-31T00:04:30.232Z,97990.00
2022-12-31T00:07:03.445Z,97995.53
2022-12-31T00:09:34.341Z,97993.94
2022-12-31T00:12:04.947Z,98008.09
2022-12-31T00:14:35.460Z,97996.38
2022-12-31T00:17:06.262Z,98005.91
2022-12-31T00:19:36.763Z,98011.34
2022-12-31T00:22:10.315Z,98015.47
2022-12-31T00:24:40.763Z,98011.25
2022-12-31T00:27:11.347Z,98013.59
2022-12-31T00:29:41.829Z,98018.91
2022-12-31T00:32:12.462Z,98021.88
2022-12-31T00:34:42.964Z,98024.41
2022-12-31T00:37:16.065Z,98012.84
2022-12-31T00:39:46.395Z,98028.03
2022-12-31T00:42:16.928Z,98028.78
2022-12-31T00:44:47.356Z,98025.59
2022-12-31T00:47:17.833Z,98026.69
2022-12-31T00:49:48.562Z,98024.59
2022-12-31T00:52:21.772Z,98025.56
2022-12-31T00:54:52.181Z,98026.56
2022-12-31T00:57:22.772Z,98026.63
2022-12-31T00:59:53.211Z,98027.09
2022-12-31T01:02:23.950Z,98036.56
2022-12-31T01:04:54.642Z,98038.63
2022-12-31T01:07:27.715Z,98035.69
2022-12-31T01:09:58.139Z,98039.53
2022-12-31T01:12:28.798Z,98034.16
2022-12-31T01:14:59.195Z,98028.34
2022-12-31T01:17:29.916Z,98036.47
2022-12-31T01:20:00.394Z,98028.13
2022-12-31T01:22:33.517Z,98022.44
2022-12-31T01:25:03.936Z,98026.03
2022-12-31T01:27:34.501Z,98011.38
2022-12-31T01:30:05.897Z,98015.28
2022-12-31T01:32:36.444Z,98012.66
2022-12-31T01:35:09.184Z,98010.22
2022-12-31T01:37:42.248Z,98014.09
2022-12-31T01:40:15.952Z,98013.44
2022-12-31T01:42:46.585Z,98010.19
2022-12-31T01:45:17.448Z,98014.53
2022-12-31T01:47:51.431Z,98007.72
2022-12-31T01:50:27.371Z,98009.78
2022-12-31T01:53:03.900Z,98012.78
2022-12-31T01:55:38.116Z,98015.91
2022-12-31T01:58:12.660Z,98019.28
2022-12-31T02:00:43.263Z,98020.66
2022-12-31T02:03:14.608Z,98021.59
2022-12-31T02:05:51.107Z,98016.72
2022-12-31T02:08:24.495Z,98015.09
2022-12-31T02:10:55.006Z,98019.59
2022-12-31T02:13:26.258Z,98017.34
2022-12-31T02:16:11.158Z,98015.38
2022-12-31T02:18:59.129Z,98017.72
2022-12-31T02:21:43.486Z,98008.38
2022-12-31T02:24:58.304Z,98023.69
2022-12-31T02:27:45.138Z,98032.25
2022-12-31T02:30:21.533Z,98023.53
2022-12-31T02:33:02.790Z,98027.66
2022-12-31T02:35:40.583Z,98031.13
2022-12-31T02:38:14.918Z,98024.84
2022-12-31T02:40:45.373Z,98034.31
2022-12-31T02:43:15.865Z,98032.50
2022-12-31T02:45:54.165Z,98027.44
2022-12-31T02:48:42.635Z,98028.63
2022-12-31T02:51:28.360Z,98029.75
2022-12-31T02:54:20.672Z,98031.97
2022-12-31T02:57:01.120Z,98031.78
2022-12-31T02:59:53.087Z,98046.88
2022-12-31T03:02:30.129Z,98043.28
2022-12-31T03:05:02.527Z,98046.72
2022-12-31T03:07:35.213Z,98049.91
2022-12-31T03:10:05.866Z,98043.13
2022-12-31T03:12:48.325Z,98044.88
2022-12-31T03:15:24.688Z,98030.84
2022-12-31T03:18:04.130Z,98036.75
2022-12-31T03:20:49.506Z,98041.72
2022-12-31T03:23:23.165Z,98037.75
2022-12-31T03:25:51.439Z,98043.78
2022-12-31T03:28:23.520Z,98047.63
2022-12-31T03:30:55.974Z,98043.75
2022-12-31T03:33:33.086Z,98052.56
2022-12-31T03:36:07.232Z,98056.69
2022-12-31T03:38:37.839Z,98051.81
2022-12-31T03:41:08.889Z,98057.72
2022-12-31T03:43:39.494Z,98047.22
2022-12-31T03:46:10.129Z,98056.03
2022-12-31T03:48:43.338Z,98057.81
2022-12-31T03:51:14.350Z,98055.19
2022-12-31T03:53:44.912Z,98065.03
2022-12-31T03:56:15.372Z,98063.38
2022-12-31T03:58:45.895Z,98066.25
2022-12-31T04:01:16.410Z,98073.44
2022-12-31T04:03:49.668Z,98076.69
2022-12-31T04:06:20.367Z,98079.44
2022-12-31T04:08:50.953Z,98079.13
2022-12-31T04:11:21.429Z,98067.38
2022-12-31T04:13:51.954Z,98073.75
2022-12-31T04:16:22.447Z,98074.22
2022-12-31T04:18:55.771Z,98079.94
2022-12-31T04:21:31.442Z,98076.47
2022-12-31T04:24:05.614Z,98072.16
2022-12-31T04:26:36.159Z,98080.09
2022-12-31T04:29:07.122Z,98082.16
2022-12-31T04:31:37.629Z,98078.13
2022-12-31T04:34:11.113Z,98082.56
2022-12-31T04:36:41.784Z,98084.41
2022-12-31T04:39:12.526Z,98075.41
2022-12-31T04:41:42.952Z,98083.69
2022-12-31T04:44:13.628Z,98085.66
2022-12-31T04:46:44.136Z,98089.13
2022-12-31T04:49:17.442Z,98094.38
2022-12-31T04:51:48.280Z,98099.69
2022-12-31T04:54:18.818Z,98089.38
2022-12-31T04:56:49.280Z,98087.94
2022-12-31T04:59:19.884Z,98093.56
2022-12-31T05:01:50.517Z,98107.91
2022-12-31T05:04:24.396Z,98100.69
2022-12-31T05:06:54.821Z,98102.16
2022-12-31T05:09:27.772Z,98102.81
2022-12-31T05:11:58.356Z,98107.88
2022-12-31T05:14:28.924Z,98106.94
2022-12-31T05:16:59.588Z,98112.00
2022-12-31T05:19:32.804Z,98112.63
2022-12-31T05:22:15.577Z,98115.06
2022-12-31T05:24:46.018Z,98120.16
2022-12-31T05:27:18.554Z,98123.50
2022-12-31T05:29:49.105Z,98123.50
2022-12-31T05:32:19.911Z,98124.22
2022-12-31T05:34:53.822Z,98119.94
2022-12-31T05:37:24.362Z,98124.81
2022-12-31T05:39:55.116Z,98132.47
2022-12-31T05:42:25.566Z,98130.50
2022-12-31T05:44:56.164Z,98146.06
2022-12-31T05:47:26.749Z,98142.38
2022-12-31T05:50:00.064Z,98141.56
2022-12-31T05:52:30.630Z,98146.72
2022-12-31T05:55:01.326Z,98145.97
2022-12-31T05:57:31.916Z,98153.03
2022-12-31T06:00:02.561Z,98153.03
2022-12-31T06:02:44.310Z,98161.09
2022-12-31T06:05:22.469Z,98160.34
2022-12-31T06:07:56.359Z,98159.72
2022-12-31T06:10:26.880Z,98163.38
2022-12-31T06:12:57.417Z,98173.25
2022-12-31T06:15:28.020Z,98175.13
2022-12-31T06:17:58.494Z,98177.00
2022-12-31T06:20:31.791Z,98180.28
2022-12-31T06:23:02.228Z,98176.72
2022-12-31T06:25:32.777Z,98168.91
2022-12-31T06:28:04.248Z,98177.56
2022-12-31T06:30:34.802Z,98184.41
2022-12-31T06:33:05.280Z,98181.69
2022-12-31T06:35:38.528Z,98184.94
2022-12-31T06:38:09.181Z,98196.09
2022-12-31T06:40:40.809Z,98190.03
2022-12-31T06:43:12.850Z,98199.31
2022-12-31T06:45:44.340Z,98188.78
2022-12-31T06:48:14.997Z,98188.56
2022-12-31T06:50:48.203Z,98197.22
2022-12-31T06:53:18.793Z,98184.34
2022-12-31T06:55:51.664Z,98208.84
2022-12-31T06:58:22.782Z,98210.03
2022-12-31T07:01:00.587Z,98211.13
2022-12-31T07:03:37.319Z,98217.38
2022-12-31T07:06:16.465Z,98217.63
2022-12-31T07:08:53.651Z,98217.44
2022-12-31T07:11:26.761Z,98212.09
2022-12-31T07:14:07.068Z,98212.66
2022-12-31T07:16:53.463Z,98208.84
2022-12-31T07:19:39.654Z,98213.56
2022-12-31T07:22:18.234Z,98223.78
2022-12-31T07:24:49.407Z,98222.59
2022-12-31T07:27:40.268Z,98228.47
2022-12-31T07:30:14.861Z,98228.34
2022-12-31T07:33:17.160Z,98233.19
2022-12-31T07:35:57.152Z,98236.53
2022-12-31T07:38:39.845Z,98236.38
2022-12-31T07:41:18.883Z,98239.53
2022-12-31T07:44:01.510Z,98233.03
2022-12-31T07:46:39.078Z,98233.63
2022-12-31T07:49:14.239Z,98235.03
2022-12-31T07:51:45.729Z,98236.34
2022-12-31T07:54:18.903Z,98239.72
2022-12-31T07:56:49.666Z,98238.53
2022-12-31T07:59:35.683Z,98240.94
2022-12-31T08:02:08.656Z,98249.31
2022-12-31T08:04:51.056Z,98249.56
2022-12-31T08:07:31.976Z,98233.97
2022-12-31T08:10:17.511Z,98241.72
2022-12-31T08:12:49.972Z,98244.69
2022-12-31T08:15:28.480Z,98242.59
2022-12-31T08:18:01.255Z,98247.47
2022-12-31T08:20:35.600Z,98240.28
2022-12-31T08:23:27.815Z,98241.16
2022-12-31T08:26:13.756Z,98240.56
2022-12-31T08:29:04.993Z,98240.22
2022-12-31T08:31:43.443Z,98232.84
2022-12-31T08:34:25.645Z,98239.63
2022-12-31T08:37:03.269Z,98240.34
2022-12-31T08:39:46.538Z,98240.94
2022-12-31T08:42:28.705Z,98240.97
2022-12-31T08:45:06.496Z,98236.38
2022-12-31T08:47:48.875Z,98241.28
2022-12-31T08:50:20.992Z,98242.84
2022-12-31T08:52:52.133Z,98237.38
2022-12-31T08:55:23.715Z,98239.91
2022-12-31T08:58:15.628Z,98232.06
2022-12-31T09:00:46.235Z,98233.16
2022-12-31T09:03:34.841Z,98234.97
2022-12-31T09:06:13.558Z,98240.41
2022-12-31T09:08:54.733Z,98228.50
2022-12-31T09:11:32.466Z,98233.97
2022-12-31T09:14:32.660Z,98226.41
2022-12-31T09:17:07.697Z,98227.53
2022-12-31T09:19:38.154Z,98225.94
2022-12-31T09:22:09.606Z,98220.88
2022-12-31T09:24:40.849Z,98217.66
2022-12-31T09:27:25.458Z,98215.91
2022-12-31T09:30:06.843Z,98218.69
2022-12-31T09:32:55.337Z,98219.78
2022-12-31T09:35:37.545Z,98220.84
2022-12-31T09:38:16.897Z,98202.59
2022-12-31T09:40:58.896Z,98195.03
2022-12-31T09:44:05.349Z,98202.41
2022-12-31T09:47:17.915Z,98204.16
2022-12-31T09:50:22.506Z,98194.59
2022-12-31T09:53:09.773Z,98185.84
2022-12-31T09:55:48.698Z,98185.94
2022-12-31T09:58:35.629Z,98187.16
2022-12-31T10:01:17.088Z,98189.19
2022-12-31T10:04:09.975Z,98176.88
2022-12-31T10:06:49.832Z,98181.78
2022-12-31T10:09:34.004Z,98178.81
2022-12-31T10:12:21.783Z,98173.38
2022-12-31T10:15:08.861Z,98173.31
2022-12-31T10:17:57.834Z,98167.56
2022-12-31T10:20:45.249Z,98163.78
2022-12-31T10:24:00.299Z,98167.59
2022-12-31T10:26:40.735Z,98161.81
2022-12-31T10:29:27.099Z,98161.19
2022-12-31T10:32:12.333Z,98155.28
2022-12-31T10:34:56.390Z,98158.16
2022-12-31T10:37:42.782Z,98152.84
2022-12-31T10:40:26.196Z,98146.69
2022-12-31T10:43:26.375Z,98150.91
2022-12-31T10:46:24.295Z,98144.25
2022-12-31T10:49:34.848Z,98144.75
2022-12-31T10:52:41.436Z,98141.72
2022-12-31T10:55:53.464Z,98128.97
2022-12-31T10:58:55.058Z,98128.94
2022-12-31T11:01:36.906Z,98131.91
2022-12-31T11:04:35.983Z,98126.34
2022-12-31T11:07:44.259Z,98124.41
2022-12-31T11:10:56.137Z,98116.94
2022-12-31T11:13:44.818Z,98116.00
2022-12-31T11:16:41.695Z,98113.75
2022-12-31T11:19:22.307Z,98116.22
2022-12-31T11:22:15.909Z,98122.34
2022-12-31T11:25:06.072Z,98124.50
2022-12-31T11:27:56.472Z,98131.00
2022-12-31T11:30:35.935Z,98127.75
2022-12-31T11:33:20.227Z,98120.38
2022-12-31T11:36:10.589Z,98123.88
2022-12-31T11:38:46.309Z,98121.88
2022-12-31T11:41:24.456Z,98123.53
2022-12-31T11:44:06.004Z,98120.84
2022-12-31T11:47:03.322Z,98111.94
2022-12-31T11:49:53.089Z,98109.94
2022-12-31T11:52:39.509Z,98112.44
2022-12-31T11:55:46.216Z,98111.44
2022-12-31T11:58:20.603Z,98110.06
2022-12-31T12:00:59.701Z,98104.13
2022-12-31T12:03:30.911Z,98111.81
2022-12-31T12:06:02.197Z,98110.63
2022-12-31T12:08:34.942Z,98105.91
2022-12-31T12:11:10.503Z,98109.91
2022-12-31T12:13:40.990Z,98109.50
2022-12-31T12:16:14.299Z,98093.59
2022-12-31T12:18:48.774Z,98094.72
2022-12-31T12:21:22.638Z,98104.91
2022-12-31T12:23:59.832Z,98101.38
2022-12-31T12:26:32.793Z,98101.38
2022-12-31T12:29:11.380Z,98093.50
2022-12-31T12:31:45.253Z,98093.91
2022-12-31T12:34:27.313Z,98092.22
2022-12-31T12:36:58.260Z,98094.25
2022-12-31T12:39:31.083Z,98105.34
2022-12-31T12:42:06.963Z,98101.19
2022-12-31T12:44:38.680Z,98099.69
2022-12-31T12:47:17.357Z,98103.22
2022-12-31T12:49:49.897Z,98105.59
2022-12-31T12:52:46.587Z,98109.03
2022-12-31T12:55:24.320Z,98109.94
2022-12-31T12:58:04.556Z,98108.97
2022-12-31T13:00:41.313Z,98111.56
2022-12-31T13:04:31.969Z,98128.19
2022-12-31T13:06:53.596Z,98119.03
2022-12-31T13:09:37.993Z,98128.44
2022-12-31T13:12:17.799Z,98130.81
2022-12-31T13:14:57.099Z,98133.19
2022-12-31T13:17:42.158Z,98130.38
2022-12-31T13:20:22.578Z,98134.59
2022-12-31T13:23:05.470Z,98144.34
2022-12-31T13:25:46.200Z,98157.28
2022-12-31T13:28:20.110Z,98154.47
2022-12-31T13:30:53.479Z,98151.81
2022-12-31T13:33:27.920Z,98166.22
2022-12-31T13:36:01.407Z,98163.25
2022-12-31T13:38:39.760Z,98163.09
2022-12-31T13:41:16.592Z,98170.66
2022-12-31T13:43:53.226Z,98172.34
2022-12-31T13:46:40.902Z,98166.00
2022-12-31T13:49:22.172Z,98176.94
2022-12-31T13:51:55.552Z,98177.59
2022-12-31T13:54:37.944Z,98185.31
2022-12-31T13:57:14.733Z,98186.84
2022-12-31T13:59:51.682Z,98187.34
2022-12-31T14:02:34.577Z,98187.03
2022-12-31T14:05:12.400Z,98182.50
2022-12-31T14:07:50.545Z,98187.53
2022-12-31T14:10:31.309Z,98189.88
2022-12-31T14:13:11.489Z,98191.56
2022-12-31T14:15:50.049Z,98202.28
2022-12-31T14:18:26.635Z,98199.56
2022-12-31T14:21:05.131Z,98199.72
2022-12-31T14:23:47.682Z,98201.56
2022-12-31T14:26:28.371Z,98199.03
2022-12-31T14:29:07.454Z,98196.50
2022-12-31T14:32:06.746Z,98194.00
2022-12-31T14:34:50.389Z,98199.00
2022-12-31T14:37:30.347Z,98202.09
2022-12-31T14:40:09.471Z,98189.53
2022-12-31T14:42:49.342Z,98193.66
2022-12-31T14:45:47.608Z,98190.25
2022-12-31T14:48:32.348Z,98193.94
2022-12-31T14:51:05.557Z,98195.72
2022-12-31T14:53:36.085Z,98204.13
2022-12-31T14:56:08.936Z,98202.84
2022-12-31T14:58:43.884Z,98203.75
2022-12-31T15:01:26.340Z,98203.75
2022-12-31T15:03:58.968Z,98196.31
2022-12-31T15:06:51.006Z,98204.63
2022-12-31T15:09:44.062Z,98208.47
2022-12-31T15:12:30.076Z,98207.50
2022-12-31T15:15:10.885Z,98205.59
2022-12-31T15:17:51.995Z,98204.75
2022-12-31T15:20:51.116Z,98207.53
2022-12-31T15:23:25.163Z,98203.78
2022-12-31T15:26:01.342Z,98207.88
2022-12-31T15:28:38.683Z,98206.09
2022-12-31T15:31:20.996Z,98217.34
2022-12-31T15:33:59.955Z,98220.69
2022-12-31T15:36:33.347Z,98219.69
2022-12-31T15:39:10.086Z,98230.59
2022-12-31T15:42:03.094Z,98232.66
2022-12-31T15:44:41.483Z,98241.06
2022-12-31T15:47:20.720Z,98225.91
2022-12-31T15:49:51.694Z,98247.09
2022-12-31T15:52:28.721Z,98253.31
2022-12-31T15:55:00.589Z,98259.81
2022-12-31T15:57:39.993Z,98260.38
2022-12-31T16:00:18.729Z,98263.41
2022-12-31T16:02:55.821Z,98264.34
2022-12-31T16:05:28.650Z,98275.91
2022-12-31T16:08:01.270Z,98273.19
2022-12-31T16:10:34.886Z,98279.25
2022-12-31T16:13:06.378Z,98267.44
2022-12-31T16:15:37.946Z,98279.38
2022-12-31T16:18:20.749Z,98267.81
2022-12-31T16:20:54.647Z,98284.19
2022-12-31T16:23:27.742Z,98279.22
2022-12-31T16:26:01.514Z,98281.84
2022-12-31T16:28:33.920Z,98280.78
2022-12-31T16:31:07.123Z,98278.47
2022-12-31T16:33:40.457Z,98275.63
2022-12-31T16:36:23.659Z,98287.59
2022-12-31T16:38:59.736Z,98290.63
2022-12-31T16:41:36.726Z,98290.88
2022-12-31T16:44:07.333Z,98292.06
2022-12-31T16:46:39.638Z,98297.59
2022-12-31T16:49:22.304Z,98288.91
2022-12-31T16:51:53.131Z,98287.41
2022-12-31T16:54:33.972Z,98290.19
2022-12-31T16:57:05.828Z,98294.22
2022-12-31T16:59:42.900Z,98290.25
2022-12-31T17:02:22.026Z,98278.81
2022-12-31T17:04:56.675Z,98290.94
2022-12-31T17:07:47.876Z,98302.22
2022-12-31T17:10:27.036Z,98306.94
2022-12-31T17:13:28.420Z,98305.34
2022-12-31T17:15:50.928Z,98306.56
2022-12-31T17:18:23.543Z,98302.69
2022-12-31T17:20:58.341Z,98311.09
2022-12-31T17:23:31.937Z,98304.72
2022-12-31T17:26:06.285Z,98315.19
2022-12-31T17:28:45.043Z,98316.13
2022-12-31T17:31:38.324Z,98319.88
2022-12-31T17:34:32.411Z,98320.03
2022-12-31T17:37:18.091Z,98327.81
2022-12-31T17:39:52.120Z,98325.56
2022-12-31T17:42:33.062Z,98336.97
2022-12-31T17:45:05.623Z,98336.38
2022-12-31T17:47:41.513Z,98343.50
2022-12-31T17:50:23.329Z,98337.59
2022-12-31T17:53:00.412Z,98335.22
2022-12-31T17:55:32.054Z,98340.63
2022-12-31T17:58:08.128Z,98347.75
2022-12-31T18:00:40.251Z,98346.00
2022-12-31T18:03:10.883Z,98343.38
2022-12-31T18:05:41.541Z,98324.06
2022-12-31T18:08:14.851Z,98345.00
2022-12-31T18:10:47.678Z,98348.25
2022-12-31T18:13:20.816Z,98348.56
2022-12-31T18:15:51.316Z,98342.41
2022-12-31T18:18:25.480Z,98349.88
2022-12-31T18:20:59.804Z,98350.03
2022-12-31T18:23:38.642Z,98350.97
2022-12-31T18:26:09.191Z,98340.13
2022-12-31T18:28:39.774Z,98362.66
2022-12-31T18:31:10.445Z,98342.19
2022-12-31T18:33:41.118Z,98362.66
2022-12-31T18:36:15.723Z,98358.03
2022-12-31T18:38:48.906Z,98347.63
2022-12-31T18:41:21.602Z,98367.25
2022-12-31T18:43:52.476Z,98362.91
2022-12-31T18:46:25.518Z,98361.47
2022-12-31T18:48:56.100Z,98370.25
2022-12-31T18:51:32.201Z,98364.97
2022-12-31T18:54:07.010Z,98367.38
2022-12-31T18:56:41.814Z,98365.06
2022-12-31T18:59:15.875Z,98371.09
2022-12-31T19:01:46.561Z,98366.34
2022-12-31T19:04:26.672Z,98368.75
2022-12-31T19:06:59.081Z,98367.19
2022-12-31T19:09:50.111Z,98373.28
2022-12-31T19:12:22.662Z,98372.63
2022-12-31T19:14:53.063Z,98368.59
2022-12-31T19:17:23.616Z,98367.53
2022-12-31T19:19:54.116Z,98360.94
2022-12-31T19:22:24.687Z,98366.75
2022-12-31T19:24:57.903Z,98366.78
2022-12-31T19:27:28.408Z,98371.41
2022-12-31T19:30:00.724Z,98369.97
2022-12-31T19:32:31.475Z,98364.50
2022-12-31T19:35:02.052Z,98357.06
2022-12-31T19:37:32.794Z,98356.22
2022-12-31T19:40:06.086Z,98360.53
2022-12-31T19:42:36.527Z,98354.44
2022-12-31T19:45:08.154Z,98351.38
2022-12-31T19:47:38.644Z,98356.44
2022-12-31T19:50:10.000Z,98363.13
2022-12-31T19:52:40.648Z,98357.66
2022-12-31T19:55:16.296Z,98369.59
2022-12-31T19:57:46.518Z,98362.66
2022-12-31T20:00:19.012Z,98363.22
2022-12-31T20:02:51.699Z,98370.69
2022-12-31T20:05:23.198Z,98371.41
2022-12-31T20:07:53.739Z,98380.00
2022-12-31T20:10:26.944Z,98376.88
2022-12-31T20:12:57.683Z,98384.75
2022-12-31T20:15:28.267Z,98388.16
2022-12-31T20:18:00.439Z,98381.72
2022-12-31T20:20:32.582Z,98388.94
2022-12-31T20:23:03.081Z,98386.63
2022-12-31T20:25:36.315Z,98393.03
2022-12-31T20:28:07.042Z,98394.44
2022-12-31T20:30:39.998Z,98385.13
2022-12-31T20:33:15.762Z,98393.75
2022-12-31T20:35:47.894Z,98384.13
2022-12-31T20:38:18.369Z,98379.78
2022-12-31T20:40:51.564Z,98376.16
2022-12-31T20:43:22.200Z,98374.72
2022-12-31T20:45:52.808Z,98369.56
2022-12-31T20:48:23.438Z,98373.69
2022-12-31T20:50:57.906Z,98386.31
2022-12-31T20:53:28.490Z,98375.34
2022-12-31T20:56:06.252Z,98383.19
2022-12-31T20:58:36.785Z,98386.47
2022-12-31T21:01:09.855Z,98382.81
2022-12-31T21:06:33.790Z,98392.75
2022-12-31T21:09:06.405Z,98387.47
2022-12-31T21:11:51.969Z,98392.44
2022-12-31T21:14:22.532Z,98391.66
2022-12-31T21:16:53.105Z,98392.66
2022-12-31T21:19:23.672Z,98394.75
2022-12-31T21:21:54.151Z,98402.16
2022-12-31T21:24:24.810Z,98403.63
2022-12-31T21:26:58.601Z,98401.38
2022-12-31T21:29:34.310Z,98398.41
2022-12-31T21:32:05.778Z,98399.72
2022-12-31T21:34:36.842Z,98390.97
2022-12-31T21:37:07.513Z,98395.00
2022-12-31T21:39:38.139Z,98392.38
2022-12-31T21:42:11.467Z,98390.47
2022-12-31T21:44:42.183Z,98391.41
2022-12-31T21:47:41.216Z,98395.94
2022-12-31T21:50:16.097Z,98404.78
2022-12-31T21:52:46.684Z,98409.22
2022-12-31T21:55:29.525Z,98412.66
2022-12-31T22:01:07.144Z,98419.75
2022-12-31T22:03:37.834Z,98411.84
2022-12-31T22:06:12.440Z,98410.91
2022-12-31T22:08:44.356Z,98405.63
2022-12-31T22:11:16.357Z,98409.00
2022-12-31T22:13:50.614Z,98399.31
2022-12-31T22:16:22.132Z,98399.31
2022-12-31T22:18:53.441Z,98403.63
2022-12-31T22:21:26.845Z,98409.00
2022-12-31T22:23:59.758Z,98406.47
2022-12-31T22:26:31.975Z,98404.78
2022-12-31T22:29:05.088Z,98400.44
2022-12-31T22:31:35.677Z,98401.31
2022-12-31T22:34:06.256Z,98401.31
2022-12-31T22:36:37.005Z,98399.63
2022-12-31T22:39:07.537Z,98403.28
2022-12-31T22:41:40.179Z,98399.91
2022-12-31T22:44:13.240Z,98397.28
2022-12-31T22:46:45.983Z,98391.28
2022-12-31T22:49:17.391Z,98399.28
2022-12-31T22:51:56.550Z,98392.22
2022-12-31T22:54:30.270Z,98401.00
2022-12-31T22:57:01.487Z,98395.47
2022-12-31T22:59:34.605Z,98386.22
2022-12-31T23:02:05.168Z,98379.38
2022-12-31T23:04:36.031Z,98380.75
2022-12-31T23:07:07.976Z,98377.63
2022-12-31T23:09:50.784Z,98369.56
2022-12-31T23:12:21.443Z,98379.13
2022-12-31T23:15:06.988Z,98384.94
2022-12-31T23:17:49.775Z,98393.56
2022-12-31T23:20:36.223Z,98387.75
2022-12-31T23:23:11.704Z,98383.31
2022-12-31T23:25:42.948Z,98397.47
2022-12-31T23:28:16.070Z,98394.56
2022-12-31T23:30:49.237Z,98382.09
2022-12-31T23:33:22.511Z,98385.47
2022-12-31T23:35:53.311Z,98387.81
2022-12-31T23:38:24.006Z,98402.31
2022-12-31T23:40:54.551Z,98400.53
2022-12-31T23:43:25.606Z,98388.50
2022-12-31T23:45:58.795Z,98393.47
2022-12-31T23:48:29.370Z,98392.19
2022-12-31T23:50:59.876Z,98398.88
2022-12-31T23:53:30.559Z,98400.47
2022-12-31T23:56:14.846Z,98398.75
2022-12-31T23:58:48.254Z,98397.38
